createdAt,value
2019-05-06T00:00:34.997Z,50.40
2019-05-06T00:03:05.073Z,50.50
2019-05-06T00:05:34.895Z,50.50
2019-05-06T00:08:04.391Z,50.60
2019-05-06T00:10:35.053Z,50.40
2019-05-06T00:13:04.732Z,51.00
2019-05-06T00:15:34.629Z,51.00
2019-05-06T00:18:04.469Z,51.10
2019-05-06T00:20:34.997Z,50.70
2019-05-06T00:23:10.138Z,50.70
2019-05-06T00:25:56.999Z,50.90
2019-05-06T00:28:34.156Z,50.80
2019-05-06T00:31:12.739Z,51.10
2019-05-06T00:33:36.105Z,51.50
2019-05-06T00:36:05.373Z,51.20
2019-05-06T00:38:34.973Z,51.00
2019-05-06T00:41:06.448Z,51.10
2019-05-06T00:43:35.743Z,51.50
2019-05-06T00:46:05.011Z,51.40
2019-05-06T00:48:35.058Z,51.40
2019-05-06T00:51:04.677Z,51.40
2019-05-06T00:53:36.975Z,51.90
2019-05-06T00:56:06.645Z,51.80
2019-05-06T00:58:35.891Z,52.00
2019-05-06T01:01:05.205Z,51.80
2019-05-06T01:03:34.878Z,51.80
2019-05-06T01:06:05.166Z,52.10
2019-05-06T01:08:35.029Z,52.90
2019-05-06T01:11:06.378Z,52.50
2019-05-06T01:13:44.100Z,52.70
2019-05-06T01:16:15.727Z,52.60
2019-05-06T01:18:45.597Z,53.10
2019-05-06T01:21:14.887Z,52.70
2019-05-06T01:23:45.950Z,52.60
2019-05-06T01:26:16.190Z,52.40
2019-05-06T01:28:46.647Z,52.40
2019-05-06T01:31:16.107Z,52.10
2019-05-06T01:33:45.515Z,53.00
2019-05-06T01:36:14.825Z,52.70
2019-05-06T01:39:04.419Z,53.10
2019-05-06T01:41:49.444Z,53.10
2019-05-06T01:44:21.071Z,52.80
2019-05-06T01:46:50.352Z,52.80
2019-05-06T01:49:19.661Z,52.90
2019-05-06T01:51:48.999Z,52.90
2019-05-06T01:54:18.236Z,52.60
2019-05-06T01:56:47.510Z,52.60
2019-05-06T01:59:16.797Z,52.50
2019-05-06T02:01:57.431Z,52.50
2019-05-06T02:04:17.082Z,52.30
2019-05-06T02:06:46.471Z,51.80
2019-05-06T02:09:17.863Z,52.20
2019-05-06T02:11:48.356Z,52.10
2019-05-06T02:14:18.279Z,52.30
2019-05-06T02:16:47.572Z,52.30
2019-05-06T02:19:16.926Z,52.20
2019-05-06T02:21:57.201Z,52.40
2019-05-06T02:24:33.704Z,52.40
2019-05-06T02:27:04.497Z,52.30
2019-05-06T02:29:36.347Z,52.60
2019-05-06T02:32:45.242Z,52.60
2019-05-06T02:35:20.314Z,52.40
2019-05-06T02:37:49.672Z,52.40
2019-05-06T02:40:25.582Z,52.30
2019-05-06T02:42:55.476Z,52.00
2019-05-06T02:45:25.393Z,52.20
2019-05-06T02:48:23.041Z,52.30
2019-05-06T02:51:03.666Z,52.20
2019-05-06T02:53:33.823Z,52.30
2019-05-06T02:56:04.365Z,52.50
2019-05-06T02:58:34.068Z,52.60
2019-05-06T03:01:03.912Z,52.20
2019-05-06T03:03:34.108Z,52.50
2019-05-06T03:06:04.419Z,52.50
2019-05-06T03:08:34.582Z,52.20
2019-05-06T03:11:04.511Z,52.70
2019-05-06T03:13:34.411Z,52.40
2019-05-06T03:16:05.770Z,52.80
2019-05-06T03:18:35.273Z,52.50
2019-05-06T03:21:29.818Z,53.20
2019-05-06T03:24:07.377Z,52.50
2019-05-06T03:26:35.531Z,52.10
2019-05-06T03:29:04.801Z,52.30
2019-05-06T03:31:36.418Z,52.70
2019-05-06T03:34:27.872Z,52.70
2019-05-06T03:36:40.624Z,52.10
2019-05-06T03:39:08.513Z,52.30
2019-05-06T03:41:37.783Z,52.80
2019-05-06T03:44:07.122Z,52.80
2019-05-06T03:46:54.401Z,52.60
2019-05-06T03:49:25.643Z,52.90
2019-05-06T03:51:56.486Z,52.90
2019-05-06T03:54:26.147Z,53.40
2019-05-06T03:56:56.740Z,53.10
2019-05-06T03:59:26.036Z,52.90
2019-05-06T04:01:55.475Z,53.00
2019-05-06T04:04:24.790Z,52.90
2019-05-06T04:06:54.693Z,53.30
2019-05-06T04:09:24.288Z,53.50
2019-05-06T04:11:54.738Z,52.80
2019-05-06T04:14:25.776Z,53.00
2019-05-06T04:17:03.235Z,52.70
2019-05-06T04:19:43.576Z,53.50
2019-05-06T04:22:43.796Z,53.00
2019-05-06T04:25:37.097Z,53.20
2019-05-06T04:28:27.436Z,53.20
2019-05-06T04:30:57.129Z,53.20
2019-05-06T04:33:27.209Z,53.60
2019-05-06T04:35:56.570Z,53.30
2019-05-06T04:38:25.813Z,53.50
2019-05-06T04:40:55.185Z,53.80
2019-05-06T04:43:26.967Z,53.70
2019-05-06T04:45:55.659Z,54.00
2019-05-06T04:48:25.059Z,53.80
2019-05-06T04:50:54.954Z,54.00
2019-05-06T04:53:27.122Z,53.70
2019-05-06T04:55:55.819Z,54.10
2019-05-06T04:58:25.143Z,54.50
2019-05-06T05:00:55.448Z,54.10
2019-05-06T05:03:24.822Z,54.80
2019-05-06T05:05:54.189Z,54.40
2019-05-06T05:08:36.810Z,54.30
2019-05-06T05:11:42.594Z,54.40
2019-05-06T05:14:32.809Z,54.30
2019-05-06T05:17:08.472Z,55.20
2019-05-06T05:19:37.974Z,55.90
2019-05-06T05:22:07.609Z,55.30
2019-05-06T05:24:38.454Z,55.30
2019-05-06T05:27:07.969Z,54.70
2019-05-06T05:29:37.325Z,54.90
2019-05-06T05:32:06.618Z,55.10
2019-05-06T05:34:39.779Z,55.00
2019-05-06T05:37:06.860Z,54.70
2019-05-06T05:39:36.414Z,54.40
2019-05-06T05:42:24.908Z,54.30
2019-05-06T05:44:55.200Z,54.80
2019-05-06T05:47:24.544Z,54.40
2019-05-06T05:50:06.898Z,54.60
2019-05-06T05:52:37.406Z,54.50
2019-05-06T05:55:09.082Z,54.70
2019-05-06T05:57:38.295Z,54.30
2019-05-06T06:00:12.786Z,54.70
2019-05-06T06:02:43.672Z,54.50
2019-05-06T06:05:13.334Z,55.40
2019-05-06T06:07:42.678Z,54.80
2019-05-06T06:10:47.053Z,55.10
2019-05-06T06:13:16.262Z,55.40
2019-05-06T06:15:56.678Z,55.30
2019-05-06T06:18:47.151Z,56.30
2019-05-06T06:21:42.770Z,56.30
2019-05-06T06:24:22.572Z,56.70
2019-05-06T06:26:53.117Z,57.20
2019-05-06T06:29:22.862Z,57.20
2019-05-06T06:32:07.616Z,57.40
2019-05-06T06:34:42.722Z,57.40
2019-05-06T06:37:35.779Z,57.70
2019-05-06T06:40:06.124Z,58.10
2019-05-06T06:42:35.432Z,57.60
2019-05-06T06:45:04.897Z,57.10
2019-05-06T06:47:34.217Z,57.40
2019-05-06T06:50:03.716Z,57.80
2019-05-06T06:52:34.623Z,57.60
2019-05-06T06:55:04.027Z,58.40
2019-05-06T06:57:52.531Z,57.60
2019-05-06T07:00:37.696Z,57.60
2019-05-06T07:03:16.780Z,57.70
2019-05-06T07:06:02.417Z,57.60
2019-05-06T07:08:37.583Z,58.10
2019-05-06T07:11:05.049Z,57.70
2019-05-06T07:13:34.838Z,58.50
2019-05-06T07:16:04.261Z,58.90
2019-05-06T07:18:33.605Z,59.30
2019-05-06T07:21:17.999Z,59.10
2019-05-06T07:23:47.366Z,59.60
2019-05-06T07:26:18.348Z,58.60
2019-05-06T07:28:47.795Z,59.20
2019-05-06T07:31:22.267Z,59.70
2019-05-06T07:33:48.135Z,59.80
2019-05-06T07:36:20.057Z,58.00
2019-05-06T07:38:52.739Z,58.70
2019-05-06T07:41:28.525Z,59.10
2019-05-06T07:44:16.831Z,58.80
2019-05-06T07:47:03.348Z,59.20
2019-05-06T07:49:32.932Z,59.80
2019-05-06T07:52:03.211Z,59.50
2019-05-06T07:54:32.967Z,59.60
2019-05-06T07:57:02.649Z,59.10
2019-05-06T07:59:35.251Z,59.10
2019-05-06T08:02:04.666Z,59.80
2019-05-06T08:04:33.967Z,59.50
2019-05-06T08:07:03.384Z,60.10
2019-05-06T08:09:32.875Z,59.70
2019-05-06T08:12:02.777Z,60.30
2019-05-06T08:14:43.252Z,59.40
2019-05-06T08:17:42.725Z,59.30
2019-05-06T08:20:13.161Z,58.50
2019-05-06T08:23:01.982Z,58.70
2019-05-06T08:25:42.318Z,58.00
2019-05-06T08:28:13.061Z,58.40
2019-05-06T08:30:43.177Z,58.90
2019-05-06T08:33:15.009Z,58.80
2019-05-06T08:35:44.380Z,57.50
2019-05-06T08:38:13.637Z,57.80
2019-05-06T08:40:43.267Z,57.40
2019-05-06T08:43:13.251Z,57.70
2019-05-06T08:45:42.683Z,57.10
2019-05-06T08:48:13.016Z,57.00
2019-05-06T08:51:02.790Z,56.70
2019-05-06T08:53:36.571Z,55.90
2019-05-06T08:56:06.957Z,56.50
2019-05-06T08:58:45.885Z,56.50
2019-05-06T09:01:43.578Z,56.30
2019-05-06T09:04:16.121Z,56.00
2019-05-06T09:06:44.096Z,56.20
2019-05-06T09:09:13.576Z,56.10
2019-05-06T09:11:44.718Z,55.90
2019-05-06T09:14:14.306Z,55.70
2019-05-06T09:16:44.309Z,55.70
2019-05-06T09:19:14.201Z,55.50
2019-05-06T09:21:46.195Z,56.10
2019-05-06T09:24:14.646Z,56.30
2019-05-06T09:26:55.026Z,56.20
2019-05-06T09:29:52.436Z,56.10
2019-05-06T09:32:36.270Z,55.30
2019-05-06T09:35:06.951Z,55.60
2019-05-06T09:37:36.340Z,56.50
2019-05-06T09:40:06.313Z,56.70
2019-05-06T09:42:35.823Z,57.00
2019-05-06T09:45:05.364Z,56.90
2019-05-06T09:48:03.733Z,56.80
2019-05-06T09:50:45.481Z,57.30
2019-05-06T09:53:17.560Z,57.30
2019-05-06T09:56:04.610Z,57.70
2019-05-06T09:58:36.782Z,58.60
2019-05-06T10:01:07.189Z,58.00
2019-05-06T10:03:36.511Z,58.20
2019-05-06T10:06:05.822Z,57.10
2019-05-06T10:08:35.230Z,56.90
2019-05-06T10:11:09.008Z,57.00
2019-05-06T10:13:38.487Z,56.20
2019-05-06T10:16:07.860Z,55.90
2019-05-06T10:18:37.309Z,55.60
2019-05-06T10:21:12.440Z,54.60
2019-05-06T10:23:42.324Z,54.00
2019-05-06T10:26:12.961Z,53.50
2019-05-06T10:28:55.391Z,53.00
2019-05-06T10:31:24.815Z,52.80
2019-05-06T10:34:14.233Z,52.60
2019-05-06T10:37:11.643Z,52.50
2019-05-06T10:39:35.969Z,52.20
2019-05-06T10:42:13.059Z,52.10
2019-05-06T10:45:01.814Z,52.30
2019-05-06T10:47:33.067Z,52.10
2019-05-06T10:50:02.767Z,51.50
2019-05-06T10:52:51.818Z,51.20
2019-05-06T10:55:23.157Z,50.90
2019-05-06T10:57:53.104Z,50.80
2019-05-06T11:00:23.218Z,50.10
2019-05-06T11:03:22.428Z,48.60
2019-05-06T11:05:53.603Z,49.40
2019-05-06T11:08:23.698Z,48.20
2019-05-06T11:10:53.738Z,47.90
2019-05-06T11:13:24.531Z,47.80
2019-05-06T11:15:55.600Z,47.80
2019-05-06T11:18:25.270Z,47.30
2019-05-06T11:20:56.311Z,47.50
2019-05-06T11:23:25.814Z,47.10
2019-05-06T11:25:55.308Z,47.10
2019-05-06T11:28:42.931Z,47.20
2019-05-06T11:31:28.714Z,46.90
2019-05-06T11:34:22.077Z,45.40
2019-05-06T11:36:53.690Z,44.50
2019-05-06T11:39:23.572Z,44.90
2019-05-06T11:42:14.522Z,44.50
2019-05-06T11:44:24.301Z,44.30
2019-05-06T11:46:53.635Z,44.40
2019-05-06T11:49:23.430Z,43.50
2019-05-06T11:51:55.952Z,44.00
2019-05-06T11:54:27.628Z,42.10
2019-05-06T11:56:58.483Z,41.50
2019-05-06T11:59:28.325Z,41.90
2019-05-06T12:02:04.026Z,43.40
2019-05-06T12:04:35.022Z,43.30
2019-05-06T12:07:11.050Z,43.30
2019-05-06T12:09:35.617Z,43.20
2019-05-06T12:12:05.105Z,42.20
2019-05-06T12:14:34.411Z,41.40
2019-05-06T12:17:03.878Z,41.30
2019-05-06T12:19:33.319Z,42.30
2019-05-06T12:22:02.697Z,41.50
2019-05-06T12:24:32.157Z,42.50
2019-05-06T12:27:03.277Z,42.80
2019-05-06T12:29:32.595Z,42.20
2019-05-06T12:32:12.854Z,42.50
2019-05-06T12:34:42.985Z,44.00
2019-05-06T12:37:14.170Z,43.70
2019-05-06T12:39:49.402Z,42.70
2019-05-06T12:42:27.948Z,43.40
2019-05-06T12:45:32.840Z,42.90
2019-05-06T12:48:20.395Z,42.50
2019-05-06T12:50:52.340Z,42.20
2019-05-06T12:53:23.156Z,41.60
2019-05-06T12:55:54.962Z,41.20
2019-05-06T12:58:24.398Z,42.40
2019-05-06T13:00:54.368Z,42.00
2019-05-06T13:03:23.925Z,42.30
2019-05-06T13:05:53.333Z,41.80
2019-05-06T13:08:28.282Z,41.10
2019-05-06T13:10:53.824Z,40.70
2019-05-06T13:13:23.163Z,41.20
2019-05-06T13:15:52.925Z,42.00
2019-05-06T13:18:23.223Z,41.90
2019-05-06T13:20:53.471Z,42.60
2019-05-06T13:23:37.314Z,41.80
2019-05-06T13:26:09.303Z,41.90
2019-05-06T13:28:42.504Z,42.30
2019-05-06T13:31:20.425Z,42.00
2019-05-06T13:33:55.089Z,42.50
2019-05-06T13:36:25.679Z,41.80
2019-05-06T13:39:09.465Z,43.00
2019-05-06T13:41:26.397Z,42.80
2019-05-06T13:44:02.575Z,43.10
2019-05-06T13:46:35.018Z,43.80
2019-05-06T13:49:36.489Z,43.00
2019-05-06T13:52:07.734Z,43.00
2019-05-06T13:54:42.156Z,43.10
2019-05-06T13:57:14.882Z,43.30
2019-05-06T13:59:46.827Z,42.70
2019-05-06T14:02:44.304Z,44.00
2019-05-06T14:05:13.882Z,43.90
2019-05-06T14:07:43.545Z,43.80
2019-05-06T14:10:14.236Z,44.00
2019-05-06T14:12:43.534Z,44.60
2019-05-06T14:15:13.184Z,43.90
2019-05-06T14:17:42.639Z,44.20
2019-05-06T14:20:13.395Z,44.30
2019-05-06T14:22:43.776Z,43.80
2019-05-06T14:25:36.425Z,43.60
2019-05-06T14:28:24.789Z,44.00
2019-05-06T14:31:03.955Z,44.90
2019-05-06T14:33:33.532Z,44.10
2019-05-06T14:36:03.306Z,44.60
2019-05-06T14:38:33.676Z,44.20
2019-05-06T14:41:09.487Z,44.70
2019-05-06T14:43:39.646Z,44.70
2019-05-06T14:46:09.067Z,44.60
2019-05-06T14:48:38.463Z,44.70
2019-05-06T14:51:07.858Z,45.50
2019-05-06T14:53:37.280Z,45.10
2019-05-06T14:56:18.865Z,45.00
2019-05-06T14:59:07.239Z,45.30
2019-05-06T15:01:45.586Z,44.60
2019-05-06T15:04:12.993Z,44.90
2019-05-06T15:06:42.715Z,44.90
2019-05-06T15:09:14.425Z,45.30
2019-05-06T15:11:43.927Z,45.20
2019-05-06T15:14:13.371Z,44.90
2019-05-06T15:16:42.984Z,45.30
2019-05-06T15:19:12.948Z,45.20
2019-05-06T15:21:43.139Z,45.20
2019-05-06T15:24:13.792Z,44.50
2019-05-06T15:26:43.574Z,44.30
2019-05-06T15:29:12.932Z,44.60
2019-05-06T15:32:04.395Z,44.60
2019-05-06T15:34:47.979Z,44.10
2019-05-06T15:37:24.576Z,44.40
2019-05-06T15:39:53.800Z,44.30
2019-05-06T15:42:24.003Z,44.00
2019-05-06T15:44:53.438Z,43.90
2019-05-06T15:47:22.858Z,44.00
2019-05-06T15:49:53.179Z,44.80
2019-05-06T15:52:23.514Z,43.80
2019-05-06T15:54:53.697Z,44.40
2019-05-06T15:57:23.168Z,44.30
2019-05-06T15:59:53.112Z,44.10
2019-05-06T16:02:24.004Z,44.40
2019-05-06T16:04:53.309Z,44.90
2019-05-06T16:07:25.302Z,45.10
2019-05-06T16:09:55.422Z,45.00
2019-05-06T16:12:24.686Z,45.60
2019-05-06T16:14:55.784Z,45.30
2019-05-06T16:17:25.063Z,45.60
2019-05-06T16:19:54.327Z,45.50
2019-05-06T16:22:23.677Z,45.90
2019-05-06T16:24:57.649Z,46.10
2019-05-06T16:27:27.007Z,46.20
2019-05-06T16:29:57.135Z,46.50
2019-05-06T16:32:26.490Z,46.40
2019-05-06T16:34:55.787Z,46.40
2019-05-06T16:37:25.118Z,46.70
2019-05-06T16:39:54.746Z,46.60
2019-05-06T16:42:27.363Z,46.80
2019-05-06T16:44:56.829Z,46.90
2019-05-06T16:47:44.403Z,46.80
2019-05-06T16:50:15.073Z,47.00
2019-05-06T16:52:45.502Z,46.90
2019-05-06T16:55:24.305Z,47.10
2019-05-06T16:58:03.422Z,47.10
2019-05-06T17:00:34.678Z,47.10
2019-05-06T17:03:18.762Z,47.20
2019-05-06T17:06:15.943Z,47.00
2019-05-06T17:08:46.657Z,46.90
2019-05-06T17:11:26.896Z,46.90
2019-05-06T17:13:46.985Z,46.90
2019-05-06T17:16:16.260Z,47.00
2019-05-06T17:18:45.509Z,47.00
2019-05-06T17:21:14.919Z,46.50
2019-05-06T17:23:44.237Z,46.80
2019-05-06T17:26:13.585Z,47.30
2019-05-06T17:29:02.581Z,46.80
2019-05-06T17:31:56.676Z,47.00
2019-05-06T17:34:31.177Z,47.20
2019-05-06T17:37:07.834Z,46.80
2019-05-06T17:39:37.278Z,46.90
2019-05-06T17:42:06.523Z,47.20
2019-05-06T17:44:35.886Z,47.50
2019-05-06T17:47:12.795Z,47.00
2019-05-06T17:49:42.342Z,46.80
2019-05-06T17:52:30.060Z,47.20
2019-05-06T17:55:02.913Z,46.70
2019-05-06T17:57:33.150Z,47.00
2019-05-06T18:00:04.187Z,47.00
2019-05-06T18:02:33.508Z,47.70
2019-05-06T18:05:03.009Z,47.80
2019-05-06T18:07:32.787Z,47.30
2019-05-06T18:10:04.962Z,47.60
2019-05-06T18:12:34.330Z,47.60
2019-05-06T18:15:03.670Z,47.20
2019-05-06T18:17:33.574Z,47.80
2019-05-06T18:20:03.452Z,47.60
2019-05-06T18:22:33.069Z,48.10
2019-05-06T18:25:02.399Z,48.10
2019-05-06T18:27:32.660Z,48.20
2019-05-06T18:30:12.382Z,48.80
2019-05-06T18:32:36.932Z,48.40
2019-05-06T18:35:06.483Z,48.60
2019-05-06T18:37:36.047Z,48.50
2019-05-06T18:40:05.376Z,48.80
2019-05-06T18:42:34.772Z,48.80
2019-05-06T18:45:04.237Z,49.00
2019-05-06T18:47:33.512Z,49.10
2019-05-06T18:50:02.800Z,49.30
2019-05-06T18:52:32.708Z,49.30
2019-05-06T18:55:02.201Z,49.40
2019-05-06T18:57:32.796Z,49.30
2019-05-06T19:00:03.125Z,49.50
2019-05-06T19:02:32.824Z,49.50
2019-05-06T19:05:09.331Z,49.50
2019-05-06T19:07:38.508Z,49.50
2019-05-06T19:10:32.752Z,49.60
2019-05-06T19:13:02.019Z,49.50
2019-05-06T19:15:33.502Z,49.40
2019-05-06T19:18:02.868Z,49.30
2019-05-06T19:20:33.819Z,49.10
2019-05-06T19:23:03.430Z,49.50
2019-05-06T19:25:34.624Z,49.20
2019-05-06T19:28:03.817Z,49.20
2019-05-06T19:30:33.109Z,49.50
2019-05-06T19:33:03.185Z,49.20
2019-05-06T19:35:36.830Z,49.40
2019-05-06T19:38:05.252Z,49.30
2019-05-06T19:40:34.716Z,49.10
2019-05-06T19:43:03.993Z,49.50
2019-05-06T19:45:34.612Z,49.60
2019-05-06T19:48:04.053Z,49.50
2019-05-06T19:50:33.252Z,49.30
2019-05-06T19:53:02.525Z,49.30
2019-05-06T19:55:31.883Z,49.30
2019-05-06T19:58:02.343Z,49.30
2019-05-06T20:00:32.584Z,49.30
2019-05-06T20:03:02.778Z,49.50
2019-05-06T20:05:38.999Z,49.50
2019-05-06T20:08:15.064Z,49.50
2019-05-06T20:10:59.693Z,49.50
2019-05-06T20:13:29.067Z,49.60
2019-05-06T20:15:58.483Z,49.60
2019-05-06T20:18:27.835Z,49.70
2019-05-06T20:20:57.127Z,49.90
2019-05-06T20:23:26.525Z,50.50
2019-05-06T20:25:55.914Z,50.80
2019-05-06T20:28:25.338Z,50.30
2019-05-06T20:30:55.790Z,50.50
2019-05-06T20:33:24.983Z,50.70
2019-05-06T20:35:54.366Z,50.50
2019-05-06T20:38:23.676Z,50.60
2019-05-06T20:40:52.933Z,50.60
2019-05-06T20:43:24.075Z,50.60
2019-05-06T20:45:55.186Z,51.20
2019-05-06T20:48:24.470Z,51.10
2019-05-06T20:50:53.721Z,51.20
2019-05-06T20:53:23.353Z,51.30
2019-05-06T20:55:53.381Z,51.20
2019-05-06T20:58:23.139Z,51.20
2019-05-06T21:00:52.794Z,51.30
2019-05-06T21:03:22.353Z,51.50
2019-05-06T21:05:52.019Z,51.50
2019-05-06T21:08:22.111Z,51.50
2019-05-06T21:10:52.959Z,51.60
2019-05-06T21:13:31.416Z,51.50
2019-05-06T21:15:53.290Z,51.50
2019-05-06T21:18:22.969Z,51.50
2019-05-06T21:20:52.883Z,51.50
2019-05-06T21:23:22.792Z,51.50
2019-05-06T21:25:52.440Z,51.60
2019-05-06T21:28:23.737Z,51.70
2019-05-06T21:30:54.560Z,51.80
2019-05-06T21:33:23.843Z,51.90
2019-05-06T21:35:53.172Z,51.80
2019-05-06T21:38:22.823Z,51.90
2019-05-06T21:40:52.578Z,51.70
2019-05-06T21:43:22.789Z,51.80
2019-05-06T21:45:53.951Z,51.90
2019-05-06T21:48:23.049Z,52.30
2019-05-06T21:50:52.386Z,52.30
2019-05-06T21:53:23.018Z,52.10
2019-05-06T21:55:52.636Z,52.00
2019-05-06T21:58:23.184Z,51.90
2019-05-06T22:01:02.157Z,52.00
2019-05-06T22:03:32.721Z,52.00
2019-05-06T22:06:02.416Z,52.00
2019-05-06T22:08:32.841Z,52.00
2019-05-06T22:11:03.149Z,52.00
2019-05-06T22:13:33.283Z,52.10
2019-05-06T22:16:04.884Z,51.80
2019-05-06T22:18:34.293Z,51.90
2019-05-06T22:21:22.897Z,52.00
2019-05-06T22:24:04.676Z,52.10
2019-05-06T22:26:34.208Z,52.40
2019-05-06T22:29:03.647Z,52.10
2019-05-06T22:31:33.231Z,52.00
2019-05-06T22:34:03.009Z,52.20
2019-05-06T22:36:32.483Z,52.20
2019-05-06T22:39:02.466Z,52.00
2019-05-06T22:41:32.584Z,52.00
2019-05-06T22:44:13.216Z,51.90
2019-05-06T22:46:34.310Z,52.40
2019-05-06T22:49:03.823Z,52.50
2019-05-06T22:51:33.361Z,52.40
2019-05-06T22:54:03.006Z,52.10
2019-05-06T22:56:32.569Z,52.00
2019-05-06T22:59:03.307Z,51.90
2019-05-06T23:01:48.246Z,51.70
2019-05-06T23:04:18.686Z,51.70
2019-05-06T23:06:47.918Z,51.80
2019-05-06T23:09:17.358Z,51.70
2019-05-06T23:11:46.632Z,51.80
2019-05-06T23:14:28.060Z,51.70
2019-05-06T23:16:47.070Z,51.70
2019-05-06T23:19:16.271Z,51.70
2019-05-06T23:21:45.454Z,51.70
2019-05-06T23:24:14.700Z,51.50
2019-05-06T23:26:43.974Z,51.40
2019-05-06T23:29:13.276Z,51.60
2019-05-06T23:31:43.758Z,51.80
2019-05-06T23:34:13.001Z,51.80
2019-05-06T23:37:19.539Z,51.80
2019-05-06T23:40:26.019Z,52.20
2019-05-06T23:43:33.063Z,52.00
2019-05-06T23:46:37.789Z,52.00
2019-05-06T23:49:42.746Z,51.90
2019-05-06T23:52:47.647Z,52.10
2019-05-06T23:55:52.429Z,52.00
2019-05-06T23:58:22.337Z,51.90
